createdAt,value
2022-09-24T00:02:18.815Z,99289.50
2022-09-24T00:04:45.649Z,99277.38
2022-09-24T00:07:12.391Z,99270.47
2022-09-24T00:09:39.486Z,99261.94
2022-09-24T00:12:07.600Z,99261.66
2022-09-24T00:14:34.408Z,99262.88
2022-09-24T00:17:01.159Z,99254.34
2022-09-24T00:19:28.055Z,99257.53
2022-09-24T00:21:54.774Z,99249.00
2022-09-24T00:24:21.762Z,99257.25
2022-09-24T00:26:48.442Z,99253.97
2022-09-24T00:29:20.026Z,99248.97
2022-09-24T00:31:48.696Z,99248.44
2022-09-24T00:34:15.796Z,99241.56
2022-09-24T00:36:43.136Z,99247.75
2022-09-24T00:39:09.874Z,99245.28
2022-09-24T00:41:39.457Z,99240.75
2022-09-24T00:44:54.977Z,99239.22
2022-09-24T00:47:37.198Z,99233.16
2022-09-24T00:50:17.973Z,99235.75
2022-09-24T00:52:51.825Z,99231.63
2022-09-24T00:55:21.930Z,99236.84
2022-09-24T00:57:52.635Z,99235.59
2022-09-24T01:00:20.839Z,99233.69
2022-09-24T01:02:55.157Z,99228.16
2022-09-24T01:05:22.020Z,99221.00
2022-09-24T01:07:49.002Z,99208.63
2022-09-24T01:10:22.358Z,99204.25
2022-09-24T01:13:04.215Z,99210.97
2022-09-24T01:15:42.550Z,99202.72
2022-09-24T01:18:23.346Z,99204.66
2022-09-24T01:21:16.170Z,99204.09
2022-09-24T01:24:22.631Z,99201.03
2022-09-24T01:27:06.189Z,99190.00
2022-09-24T01:29:50.074Z,99195.53
2022-09-24T01:32:30.204Z,99191.53
2022-09-24T01:35:05.986Z,99186.72
2022-09-24T01:37:37.286Z,99188.63
2022-09-24T01:40:08.820Z,99186.97
2022-09-24T01:42:39.639Z,99186.97
2022-09-24T01:45:11.551Z,99192.34
2022-09-24T01:47:41.133Z,99174.88
2022-09-24T01:50:12.343Z,99185.34
2022-09-24T01:52:46.572Z,99188.94
2022-09-24T01:55:20.083Z,99179.56
2022-09-24T01:57:52.355Z,99178.72
2022-09-24T02:00:22.390Z,99172.69
2022-09-24T02:02:57.586Z,99177.63
2022-09-24T02:05:34.688Z,99162.06
2022-09-24T02:08:08.260Z,99164.66
2022-09-24T02:10:44.031Z,99168.25
2022-09-24T02:13:13.025Z,99161.09
2022-09-24T02:15:49.904Z,99168.25
2022-09-24T02:18:22.876Z,99163.19
2022-09-24T02:20:52.670Z,99152.88
2022-09-24T02:23:20.768Z,99152.78
2022-09-24T02:25:56.719Z,99160.88
2022-09-24T02:28:24.513Z,99161.81
2022-09-24T02:31:01.375Z,99156.72
2022-09-24T02:33:33.858Z,99158.69
2022-09-24T02:36:01.795Z,99160.31
2022-09-24T02:38:28.583Z,99159.06
2022-09-24T02:40:56.925Z,99152.06
2022-09-24T02:43:23.766Z,99149.56
2022-09-24T02:45:51.837Z,99147.66
2022-09-24T02:48:18.807Z,99149.69
2022-09-24T02:50:45.858Z,99144.59
2022-09-24T02:53:12.606Z,99142.38
2022-09-24T02:55:39.506Z,99144.03
2022-09-24T02:58:06.275Z,99144.88
2022-09-24T03:00:33.043Z,99143.13
2022-09-24T03:03:01.169Z,99148.22
2022-09-24T03:05:28.245Z,99154.41
2022-09-24T03:07:54.993Z,99150.41
2022-09-24T03:10:21.847Z,99152.31
2022-09-24T03:12:48.651Z,99158.13
2022-09-24T03:15:15.604Z,99157.88
2022-09-24T03:17:42.346Z,99152.34
2022-09-24T03:20:10.548Z,99151.25
2022-09-24T03:22:37.270Z,99158.66
2022-09-24T03:25:04.963Z,99154.13
2022-09-24T03:27:32.715Z,99147.25
2022-09-24T03:29:59.892Z,99150.69
2022-09-24T03:32:26.621Z,99140.34
2022-09-24T03:34:53.476Z,99144.34
2022-09-24T03:37:21.656Z,99129.50
2022-09-24T03:39:48.931Z,99127.28
2022-09-24T03:42:15.698Z,99120.41
2022-09-24T03:44:42.655Z,99114.91
2022-09-24T03:47:09.430Z,99125.06
2022-09-24T03:49:36.196Z,99117.91
2022-09-24T03:52:03.196Z,99108.41
2022-09-24T03:54:31.295Z,99118.59
2022-09-24T03:56:58.031Z,99125.47
2022-09-24T03:59:25.231Z,99123.16
2022-09-24T04:01:51.985Z,99123.16
2022-09-24T04:04:18.899Z,99116.25
2022-09-24T04:06:45.659Z,99123.41
2022-09-24T04:09:12.697Z,99126.16
2022-09-24T04:11:41.026Z,99122.22
2022-09-24T04:14:07.741Z,99111.88
2022-09-24T04:16:34.781Z,99108.28
2022-09-24T04:19:01.563Z,99104.47
2022-09-24T04:21:28.294Z,99104.59
2022-09-24T04:23:55.312Z,99101.44
2022-09-24T04:26:22.016Z,99095.63
2022-09-24T04:28:50.613Z,99100.03
2022-09-24T04:31:17.417Z,99108.84
2022-09-24T04:33:44.484Z,99097.53
2022-09-24T04:36:11.233Z,99106.22
2022-09-24T04:38:40.034Z,99104.16
2022-09-24T04:41:08.563Z,99107.19
2022-09-24T04:43:35.759Z,99103.06
2022-09-24T04:46:05.133Z,99098.94
2022-09-24T04:48:32.387Z,99101.44
2022-09-24T04:50:59.259Z,99109.13
2022-09-24T04:53:26.111Z,99106.78
2022-09-24T04:55:53.092Z,99114.63
2022-09-24T04:58:20.094Z,99107.47
2022-09-24T05:00:46.835Z,99103.50
2022-09-24T05:03:15.020Z,99104.59
2022-09-24T05:05:41.986Z,99098.94
2022-09-24T05:08:09.083Z,99095.75
2022-09-24T05:10:35.807Z,99092.03
2022-09-24T05:13:02.805Z,99090.13
2022-09-24T05:15:30.181Z,99095.06
2022-09-24T05:17:58.941Z,99103.63
2022-09-24T05:20:28.410Z,99109.66
2022-09-24T05:22:55.364Z,99107.47
2022-09-24T05:25:22.525Z,99108.16
2022-09-24T05:27:51.650Z,99100.59
2022-09-24T05:30:21.250Z,99111.06
2022-09-24T05:32:48.419Z,99111.31
2022-09-24T05:35:15.596Z,99103.34
2022-09-24T05:37:44.105Z,99102.78
2022-09-24T05:40:11.006Z,99110.50
2022-09-24T05:42:37.811Z,99116.97
2022-09-24T05:45:06.115Z,99121.78
2022-09-24T05:47:32.787Z,99117.91
2022-09-24T05:49:59.839Z,99125.34
2022-09-24T05:52:26.614Z,99127.53
2022-09-24T05:54:54.918Z,99127.81
2022-09-24T05:57:21.645Z,99136.88
2022-09-24T05:59:48.430Z,99128.47
2022-09-24T06:02:15.205Z,99132.47
2022-09-24T06:04:41.975Z,99133.66
2022-09-24T06:07:08.692Z,99145.59
2022-09-24T06:09:35.945Z,99135.94
2022-09-24T06:12:07.639Z,99151.38
2022-09-24T06:14:34.608Z,99149.28
2022-09-24T06:17:01.272Z,99145.78
2022-09-24T06:19:28.135Z,99145.66
2022-09-24T06:21:54.860Z,99140.53
2022-09-24T06:24:21.627Z,99135.28
2022-09-24T06:26:48.609Z,99135.28
2022-09-24T06:30:50.878Z,99139.97
2022-09-24T06:33:54.416Z,99131.19
2022-09-24T06:36:24.709Z,99136.44
2022-09-24T06:41:58.081Z,99157.69
2022-09-24T06:45:18.180Z,99170.88
2022-09-24T06:56:28.077Z,99165.91
2022-09-24T06:59:04.179Z,99166.53
2022-09-24T07:01:38.501Z,99184.94
2022-09-24T07:09:44.019Z,99172.28
2022-09-24T07:12:15.034Z,99180.59
2022-09-24T07:14:42.207Z,99180.13
2022-09-24T07:17:08.966Z,99181.25
2022-09-24T07:19:35.693Z,99167.88
2022-09-24T07:22:02.609Z,99162.16
2022-09-24T07:24:29.461Z,99168.41
2022-09-24T07:26:57.653Z,99177.22
2022-09-24T07:29:24.499Z,99181.34
2022-09-24T07:31:51.472Z,99183.81
2022-09-24T07:34:20.599Z,99189.56
2022-09-24T07:36:51.527Z,99182.34
2022-09-24T07:39:18.847Z,99180.38
2022-09-24T07:41:45.763Z,99189.66
2022-09-24T07:44:14.217Z,99195.09
2022-09-24T07:46:41.134Z,99205.13
2022-09-24T07:49:08.244Z,99197.19
2022-09-24T07:51:35.095Z,99193.25
2022-09-24T07:58:49.438Z,99205.88
2022-09-24T08:05:33.932Z,99189.22
2022-09-24T08:08:01.782Z,99194.16
2022-09-24T08:10:28.854Z,99204.50
2022-09-24T08:12:55.924Z,99201.81
2022-09-24T08:15:30.128Z,99198.09
2022-09-24T08:22:18.662Z,99201.97
2022-09-24T08:26:26.714Z,99206.75
2022-09-24T09:05:22.313Z,99210.97
2022-09-24T09:08:01.267Z,99202.69
2022-09-24T09:10:36.034Z,99211.16
2022-09-24T09:22:00.780Z,99214.13
2022-09-24T09:25:44.762Z,99205.34
2022-09-24T09:41:54.277Z,99210.41
2022-09-24T09:49:46.141Z,99210.19
2022-09-24T09:53:29.327Z,99201.53
2022-09-24T09:55:37.913Z,99211.28
2022-09-24T09:58:22.344Z,99201.19
2022-09-24T10:01:03.503Z,99206.88
2022-09-24T10:03:48.225Z,99212.06
2022-09-24T10:06:31.844Z,99208.28
2022-09-24T10:10:03.991Z,99211.06
2022-09-24T10:13:38.619Z,99195.00
2022-09-24T10:16:11.870Z,99196.50
2022-09-24T10:18:48.698Z,99185.63
2022-09-24T10:21:57.436Z,99204.63
2022-09-24T10:24:29.396Z,99212.53
2022-09-24T10:28:19.386Z,99206.78
2022-09-24T10:34:26.956Z,99202.28
2022-09-24T10:37:07.262Z,99209.69
2022-09-24T10:39:37.513Z,99197.66
2022-09-24T10:47:40.788Z,99203.94
2022-09-24T10:56:12.049Z,99198.69
2022-09-24T10:58:28.918Z,99211.53
2022-09-24T10:59:30.133Z,99198.94
2022-09-24T11:02:34.173Z,99197.00
2022-09-24T11:05:12.047Z,99194.34
2022-09-24T11:08:08.633Z,99191.25
2022-09-24T11:11:06.402Z,99190.88
2022-09-24T11:13:51.462Z,99185.59
2022-09-24T11:17:14.239Z,99188.06
2022-09-24T11:20:10.448Z,99183.88
2022-09-24T11:23:03.077Z,99185.56
2022-09-24T11:25:44.616Z,99187.13
2022-09-24T11:28:43.031Z,99192.31
2022-09-24T11:31:32.117Z,99186.59
2022-09-24T11:34:26.989Z,99181.50
2022-09-24T11:37:16.151Z,99184.97
2022-09-24T11:40:06.015Z,99183.00
2022-09-24T11:42:49.566Z,99172.50
2022-09-24T11:45:45.877Z,99171.03
2022-09-24T11:48:43.232Z,99171.03
2022-09-24T11:51:25.870Z,99168.88
2022-09-24T11:53:59.092Z,99168.72
2022-09-24T11:56:33.732Z,99173.66
2022-09-24T11:59:24.590Z,99170.34
2022-09-24T12:02:01.067Z,99174.47
2022-09-24T12:04:50.523Z,99166.91
2022-09-24T12:07:26.302Z,99166.84
2022-09-24T12:09:59.809Z,99174.38
2022-09-24T12:12:33.682Z,99169.47
2022-09-24T12:15:06.834Z,99156.69
2022-09-24T12:17:40.857Z,99157.34
2022-09-24T12:20:20.488Z,99171.34
2022-09-24T12:22:53.465Z,99161.47
2022-09-24T12:25:20.467Z,99152.75
2022-09-24T12:27:48.325Z,99161.66
2022-09-24T12:30:33.546Z,99167.72
2022-09-24T12:33:14.764Z,99156.03
2022-09-24T12:36:03.827Z,99162.28
2022-09-24T12:38:38.162Z,99161.50
2022-09-24T12:41:31.435Z,99163.97
2022-09-24T12:44:06.001Z,99167.22
2022-09-24T12:46:42.077Z,99162.63
2022-09-24T12:49:33.724Z,99152.44
2022-09-24T12:52:04.743Z,99153.91
2022-09-24T12:54:34.500Z,99160.97
2022-09-24T12:57:13.374Z,99151.78
2022-09-24T12:59:50.656Z,99152.69
2022-09-24T13:02:22.207Z,99150.66
2022-09-24T13:05:18.131Z,99144.72
2022-09-24T13:07:58.814Z,99143.56
2022-09-24T13:10:30.178Z,99139.97
2022-09-24T13:12:59.432Z,99142.16
2022-09-24T13:15:34.425Z,99137.91
2022-09-24T13:18:22.352Z,99136.91
2022-09-24T13:21:02.211Z,99123.44
2022-09-24T13:23:45.882Z,99124.94
2022-09-24T13:26:29.668Z,99120.63
2022-09-24T13:29:00.403Z,99124.41
2022-09-24T13:31:41.341Z,99126.09
2022-09-24T13:34:20.420Z,99119.84
2022-09-24T13:36:57.795Z,99122.81
2022-09-24T13:39:34.850Z,99120.66
2022-09-24T13:42:15.136Z,99114.91
2022-09-24T13:44:48.488Z,99105.69
2022-09-24T13:47:27.269Z,99112.59
2022-09-24T13:50:07.122Z,99109.28
2022-09-24T13:52:43.015Z,99106.97
2022-09-24T13:55:23.302Z,99113.91
2022-09-24T13:57:50.430Z,99112.56
2022-09-24T14:00:21.673Z,99108.97
2022-09-24T14:03:00.727Z,99119.47
2022-09-24T14:05:30.162Z,99112.53
2022-09-24T14:08:04.033Z,99115.16
2022-09-24T14:10:32.547Z,99109.66
2022-09-24T14:13:02.375Z,99109.28
2022-09-24T14:15:29.321Z,99099.59
2022-09-24T14:17:58.144Z,99115.19
2022-09-24T14:20:33.101Z,99105.75
2022-09-24T14:23:04.698Z,99112.16
2022-09-24T14:25:36.221Z,99108.59
2022-09-24T14:28:07.579Z,99108.91
2022-09-24T14:30:47.210Z,99106.34
2022-09-24T14:33:20.706Z,99112.75
2022-09-24T14:35:52.886Z,99098.78
2022-09-24T14:38:26.438Z,99111.59
2022-09-24T14:40:59.831Z,99106.22
2022-09-24T14:43:33.902Z,99114.41
2022-09-24T14:46:06.916Z,99112.59
2022-09-24T14:48:35.413Z,99108.66
2022-09-24T14:51:02.604Z,99110.47
2022-09-24T14:53:33.637Z,99108.00
2022-09-24T14:56:06.902Z,99105.38
2022-09-24T14:58:36.166Z,99105.88
2022-09-24T15:01:12.398Z,99104.72
2022-09-24T15:03:49.853Z,99104.53
2022-09-24T15:06:25.025Z,99106.34
2022-09-24T15:08:59.843Z,99100.34
2022-09-24T15:11:30.415Z,99101.47
2022-09-24T15:14:01.554Z,99101.00
2022-09-24T15:16:33.377Z,99095.41
2022-09-24T15:19:19.150Z,99101.16
2022-09-24T15:21:48.204Z,99099.22
2022-09-24T15:24:17.501Z,99084.75
2022-09-24T15:26:47.657Z,99080.63
2022-09-24T15:29:22.314Z,99082.44
2022-09-24T15:31:49.668Z,99079.31
2022-09-24T15:34:19.727Z,99084.53
2022-09-24T15:36:54.929Z,99081.28
2022-09-24T15:39:26.940Z,99079.97
2022-09-24T15:41:53.765Z,99084.25
2022-09-24T15:44:23.655Z,99078.44
2022-09-24T15:46:52.295Z,99082.75
2022-09-24T15:49:19.956Z,99082.41
2022-09-24T15:51:46.698Z,99079.94
2022-09-24T15:54:13.512Z,99087.03
2022-09-24T15:56:44.183Z,99081.63
2022-09-24T15:59:13.764Z,99085.84
2022-09-24T16:01:42.267Z,99094.41
2022-09-24T16:04:11.322Z,99083.09
2022-09-24T16:06:38.395Z,99075.75
2022-09-24T16:09:05.408Z,99083.75
2022-09-24T16:11:32.925Z,99078.97
2022-09-24T16:14:01.203Z,99082.09
2022-09-24T16:16:28.499Z,99077.34
2022-09-24T16:18:55.198Z,99076.53
2022-09-24T16:21:22.210Z,99076.00
2022-09-24T16:23:54.443Z,99078.34
2022-09-24T16:26:21.220Z,99075.34
2022-09-24T16:28:48.126Z,99081.06
2022-09-24T16:31:16.417Z,99075.00
2022-09-24T16:33:43.172Z,99077.66
2022-09-24T16:36:11.637Z,99074.97
2022-09-24T16:38:39.611Z,99071.06
2022-09-24T16:41:07.815Z,99072.34
2022-09-24T16:43:34.652Z,99070.38
2022-09-24T16:46:02.299Z,99074.31
2022-09-24T16:48:33.725Z,99069.06
2022-09-24T16:51:07.341Z,99065.25
2022-09-24T16:53:37.983Z,99067.38
2022-09-24T16:56:07.788Z,99072.63
2022-09-24T16:58:35.149Z,99076.09
2022-09-24T17:01:05.097Z,99079.69
2022-09-24T17:03:34.003Z,99068.31
2022-09-24T17:06:01.542Z,99073.91
2022-09-24T17:08:31.072Z,99076.19
2022-09-24T17:11:00.508Z,99077.22
2022-09-24T17:13:27.733Z,99078.22
2022-09-24T17:15:55.178Z,99077.59
2022-09-24T17:18:23.144Z,99081.50
2022-09-24T17:21:00.909Z,99076.91
2022-09-24T17:23:28.195Z,99077.03
2022-09-24T17:26:01.882Z,99080.03
2022-09-24T17:28:32.548Z,99083.00
2022-09-24T17:31:02.782Z,99089.25
2022-09-24T17:33:47.189Z,99091.59
2022-09-24T17:36:17.546Z,99094.47
2022-09-24T17:38:44.512Z,99098.44
2022-09-24T17:41:14.026Z,99110.94
2022-09-24T17:43:45.200Z,99104.06
2022-09-24T17:46:15.440Z,99111.97
2022-09-24T17:48:45.481Z,99112.97
2022-09-24T17:51:15.370Z,99117.63
2022-09-24T17:53:43.575Z,99117.00
2022-09-24T17:56:12.528Z,99111.09
2022-09-24T17:58:42.103Z,99108.97
2022-09-24T18:01:11.675Z,99113.91
2022-09-24T18:03:39.611Z,99116.03
2022-09-24T18:06:09.471Z,99116.03
2022-09-24T18:08:37.372Z,99113.72
2022-09-24T18:11:09.935Z,99111.59
2022-09-24T18:13:38.030Z,99110.13
2022-09-24T18:16:08.963Z,99121.97
2022-09-24T18:18:36.850Z,99114.75
2022-09-24T18:21:07.085Z,99111.63
2022-09-24T18:23:35.311Z,99119.34
2022-09-24T18:26:13.578Z,99113.41
2022-09-24T18:28:57.250Z,99109.63
2022-09-24T18:31:27.337Z,99108.81
2022-09-24T18:33:57.866Z,99110.28
2022-09-24T18:36:24.996Z,99115.03
2022-09-24T18:38:53.103Z,99123.19
2022-09-24T18:41:23.407Z,99122.81
2022-09-24T18:43:51.096Z,99129.06
2022-09-24T18:46:19.871Z,99131.97
2022-09-24T18:48:50.415Z,99128.63
2022-09-24T18:51:19.888Z,99127.38
2022-09-24T18:53:52.401Z,99128.53
2022-09-24T18:56:22.955Z,99128.84
2022-09-24T18:58:56.181Z,99117.06
2022-09-24T19:01:23.454Z,99123.75
2022-09-24T19:03:50.732Z,99125.22
2022-09-24T19:06:17.859Z,99126.22
2022-09-24T19:08:45.511Z,99116.06
2022-09-24T19:11:13.901Z,99121.38
2022-09-24T19:13:47.972Z,99121.56
2022-09-24T19:16:17.776Z,99118.81
2022-09-24T19:18:45.343Z,99121.47
2022-09-24T19:21:13.262Z,99118.69
2022-09-24T19:23:43.697Z,99127.38
2022-09-24T19:26:17.709Z,99120.84
2022-09-24T19:28:47.960Z,99122.47
2022-09-24T19:31:18.021Z,99119.84
2022-09-24T19:33:45.839Z,99118.06
2022-09-24T19:36:14.761Z,99121.34
2022-09-24T19:38:41.836Z,99120.53
2022-09-24T19:41:14.683Z,99120.53
2022-09-24T19:43:42.826Z,99116.72
2022-09-24T19:46:17.925Z,99120.47
2022-09-24T19:48:49.047Z,99115.22
2022-09-24T19:51:22.241Z,99120.31
2022-09-24T19:53:52.295Z,99115.50
2022-09-24T19:56:23.247Z,99113.59
2022-09-24T19:58:55.486Z,99114.28
2022-09-24T20:01:27.054Z,99125.81
2022-09-24T20:03:59.185Z,99118.97
2022-09-24T20:06:28.350Z,99120.00
2022-09-24T20:08:57.710Z,99124.84
2022-09-24T20:11:27.710Z,99122.75
2022-09-24T20:13:56.668Z,99130.69
2022-09-24T20:16:28.029Z,99136.31
2022-09-24T20:18:57.248Z,99128.25
2022-09-24T20:21:25.848Z,99130.44
2022-09-24T20:23:55.508Z,99130.94
2022-09-24T20:26:22.929Z,99138.69
2022-09-24T20:28:50.038Z,99136.84
2022-09-24T20:31:17.709Z,99133.88
2022-09-24T20:33:47.765Z,99140.31
2022-09-24T20:36:19.686Z,99148.84
2022-09-24T20:38:48.946Z,99152.97
2022-09-24T20:41:18.926Z,99154.31
2022-09-24T20:43:46.096Z,99157.59
2022-09-24T20:46:18.108Z,99154.97
2022-09-24T20:48:46.509Z,99162.22
2022-09-24T20:51:15.986Z,99167.34
2022-09-24T20:53:42.867Z,99161.44
2022-09-24T20:56:10.900Z,99167.81
2022-09-24T20:58:38.907Z,99162.34
2022-09-24T21:01:06.715Z,99170.09
2022-09-24T21:03:50.305Z,99164.84
2022-09-24T21:06:19.525Z,99171.22
2022-09-24T21:08:47.256Z,99170.38
2022-09-24T21:11:17.300Z,99168.59
2022-09-24T21:13:46.906Z,99168.44
2022-09-24T21:16:14.013Z,99168.75
2022-09-24T21:18:41.775Z,99174.00
2022-09-24T21:21:11.568Z,99169.88
2022-09-24T21:23:40.110Z,99165.75
2022-09-24T21:26:13.233Z,99172.47
2022-09-24T21:28:40.921Z,99166.69
2022-09-24T21:31:08.217Z,99165.03
2022-09-24T21:33:35.315Z,99166.84
2022-09-24T21:36:05.298Z,99165.03
2022-09-24T21:38:32.916Z,99156.19
2022-09-24T21:41:01.691Z,99154.53
2022-09-24T21:43:33.873Z,99153.88
2022-09-24T21:46:04.692Z,99152.38
2022-09-24T21:48:32.513Z,99151.81
2022-09-24T21:51:04.341Z,99154.56
2022-09-24T21:53:32.534Z,99153.25
2022-09-24T21:56:02.269Z,99155.56
2022-09-24T21:58:30.399Z,99146.56
2022-09-24T22:00:57.720Z,99150.69
2022-09-24T22:03:24.515Z,99158.22
2022-09-24T22:05:51.879Z,99164.16
2022-09-24T22:08:18.642Z,99156.28
2022-09-24T22:10:45.522Z,99155.59
2022-09-24T22:13:14.219Z,99148.41
2022-09-24T22:15:41.350Z,99147.94
2022-09-24T22:18:08.304Z,99146.47
2022-09-24T22:20:43.066Z,99150.44
2022-09-24T22:23:11.583Z,99142.56
2022-09-24T22:25:45.289Z,99144.63
2022-09-24T22:28:18.548Z,99146.38
2022-09-24T22:30:50.851Z,99145.75
2022-09-24T22:33:18.379Z,99145.47
2022-09-24T22:35:47.603Z,99154.66
2022-09-24T22:38:34.569Z,99157.84
2022-09-24T22:41:15.392Z,99156.03
2022-09-24T22:47:37.749Z,99152.78
2022-09-24T22:50:05.727Z,99147.88
2022-09-24T22:52:32.503Z,99153.78
2022-09-24T22:54:59.182Z,99152.78
2022-09-24T22:57:25.975Z,99156.25
2022-09-24T22:59:54.367Z,99154.09
2022-09-24T23:02:21.079Z,99148.09
2022-09-24T23:04:48.063Z,99152.31
2022-09-24T23:07:15.401Z,99146.69
2022-09-24T23:09:42.144Z,99154.84
2022-09-24T23:12:08.901Z,99153.34
2022-09-24T23:14:35.899Z,99143.19
2022-09-24T23:17:03.992Z,99134.81
2022-09-24T23:19:30.921Z,99132.09
2022-09-24T23:21:57.778Z,99134.56
2022-09-24T23:24:24.719Z,99144.97
2022-09-24T23:26:52.892Z,99140.66
2022-09-24T23:29:20.049Z,99156.31
2022-09-24T23:31:47.308Z,99141.81
2022-09-24T23:34:15.473Z,99150.72
2022-09-24T23:36:42.419Z,99146.81
2022-09-24T23:39:09.462Z,99145.00
2022-09-24T23:41:36.528Z,99142.16
2022-09-24T23:44:03.906Z,99138.56
2022-09-24T23:46:30.986Z,99132.44
2022-09-24T23:48:57.803Z,99130.19
2022-09-24T23:51:25.977Z,99136.09
2022-09-24T23:53:53.224Z,99135.28
2022-09-24T23:56:20.427Z,99136.09
2022-09-24T23:58:47.467Z,99134.84
